sensor_id;sensor_type;location;lat;lon;timestamp;pressure;altitude;pressure_sealevel;temperature;humidity
85066;BME280;75401;52.588;13.224;2024-03-06T00:01:06;101747.06;;;3.47;69.95
85066;BME280;75401;52.588;13.224;2024-03-06T00:03:31;101743.56;;;3.46;69.96
85066;BME280;75401;52.588;13.224;2024-03-06T00:05:57;101746.31;;;3.45;69.70
85066;BME280;75401;52.588;13.224;2024-03-06T00:08:22;101747.22;;;3.44;69.53
85066;BME280;75401;52.588;13.224;2024-03-06T00:10:47;101757.91;;;3.42;69.77
85066;BME280;75401;52.588;13.224;2024-03-06T00:13:13;101757.09;;;3.40;69.85
85066;BME280;75401;52.588;13.224;2024-03-06T00:15:39;101767.75;;;3.39;70.13
85066;BME280;75401;52.588;13.224;2024-03-06T00:18:05;101767.06;;;3.35;69.41
85066;BME280;75401;52.588;13.224;2024-03-06T00:20:30;101771.53;;;3.35;69.51
85066;BME280;75401;52.588;13.224;2024-03-06T00:22:56;101768.94;;;3.33;69.66
85066;BME280;75401;52.588;13.224;2024-03-06T00:25:21;101765.94;;;3.24;69.89
85066;BME280;75401;52.588;13.224;2024-03-06T00:27:46;101778.81;;;3.30;70.04
85066;BME280;75401;52.588;13.224;2024-03-06T00:30:12;101772.69;;;3.29;70.26
85066;BME280;75401;52.588;13.224;2024-03-06T00:32:39;101784.09;;;3.30;70.39
85066;BME280;75401;52.588;13.224;2024-03-06T00:35:05;101779.81;;;3.27;70.36
85066;BME280;75401;52.588;13.224;2024-03-06T00:37:30;101784.28;;;3.27;70.32
85066;BME280;75401;52.588;13.224;2024-03-06T00:39:55;101791.41;;;3.25;70.46
85066;BME280;75401;52.588;13.224;2024-03-06T00:42:21;101791.50;;;3.23;70.76
85066;BME280;75401;52.588;13.224;2024-03-06T00:44:46;101795.06;;;3.22;70.65
85066;BME280;75401;52.588;13.224;2024-03-06T00:47:12;101802.16;;;3.22;70.55
85066;BME280;75401;52.588;13.224;2024-03-06T00:49:38;101810.16;;;3.20;70.54
85066;BME280;75401;52.588;13.224;2024-03-06T00:52:04;101817.22;;;3.19;70.68
85066;BME280;75401;52.588;13.224;2024-03-06T00:54:29;101810.41;;;3.15;70.65
85066;BME280;75401;52.588;13.224;2024-03-06T00:56:55;101811.25;;;3.16;70.76
85066;BME280;75401;52.588;13.224;2024-03-06T00:59:21;101811.31;;;3.14;71.05
85066;BME280;75401;52.588;13.224;2024-03-06T01:01:46;101815.94;;;3.11;70.85
85066;BME280;75401;52.588;13.224;2024-03-06T01:04:12;101801.47;;;3.01;71.13
85066;BME280;75401;52.588;13.224;2024-03-06T01:06:38;101815.06;;;3.10;70.80
85066;BME280;75401;52.588;13.224;2024-03-06T01:09:04;101812.41;;;3.10;70.89
85066;BME280;75401;52.588;13.224;2024-03-06T01:11:29;101812.50;;;3.09;70.84
85066;BME280;75401;52.588;13.224;2024-03-06T01:13:54;101826.56;;;3.09;70.72
85066;BME280;75401;52.588;13.224;2024-03-06T01:16:20;101823.16;;;3.07;70.78
85066;BME280;75401;52.588;13.224;2024-03-06T01:18:45;101820.50;;;3.07;70.89
85066;BME280;75401;52.588;13.224;2024-03-06T01:21:10;101823.22;;;3.06;70.97
85066;BME280;75401;52.588;13.224;2024-03-06T01:23:37;101816.22;;;3.05;70.95
85066;BME280;75401;52.588;13.224;2024-03-06T01:26:02;101823.28;;;3.04;71.13
85066;BME280;75401;52.588;13.224;2024-03-06T01:28:28;101824.25;;;3.03;71.17
85066;BME280;75401;52.588;13.224;2024-03-06T01:30:53;101825.25;;;3.01;70.88
85066;BME280;75401;52.588;13.224;2024-03-06T01:33:18;101830.53;;;3.01;70.77
85066;BME280;75401;52.588;13.224;2024-03-06T01:35:44;101827.13;;;2.99;71.22
85066;BME280;75401;52.588;13.224;2024-03-06T01:38:09;101834.09;;;3.00;70.85
85066;BME280;75401;52.588;13.224;2024-03-06T01:40:36;101832.56;;;2.96;70.92
85066;BME280;75401;52.588;13.224;2024-03-06T01:43:01;101837.84;;;2.96;70.99
85066;BME280;75401;52.588;13.224;2024-03-06T01:45:26;101836.97;;;2.95;70.85
85066;BME280;75401;52.588;13.224;2024-03-06T01:47:52;101839.69;;;2.94;70.78
85066;BME280;75401;52.588;13.224;2024-03-06T01:50:18;101836.13;;;2.95;70.84
85066;BME280;75401;52.588;13.224;2024-03-06T01:52:44;101836.25;;;2.92;71.14
85066;BME280;75401;52.588;13.224;2024-03-06T01:55:10;101838.91;;;2.92;71.41
85066;BME280;75401;52.588;13.224;2024-03-06T01:57:38;101832.94;;;2.88;71.42
85066;BME280;75401;52.588;13.224;2024-03-06T02:00:06;101842.56;;;2.89;71.25
85066;BME280;75401;52.588;13.224;2024-03-06T02:02:31;101846.06;;;2.90;71.18
85066;BME280;75401;52.588;13.224;2024-03-06T02:04:57;101849.63;;;2.89;71.42
85066;BME280;75401;52.588;13.224;2024-03-06T02:07:24;101845.34;;;2.86;71.36
85066;BME280;75401;52.588;13.224;2024-03-06T02:09:49;101847.16;;;2.86;71.46
85066;BME280;75401;52.588;13.224;2024-03-06T02:12:15;101843.69;;;2.84;71.51
85066;BME280;75401;52.588;13.224;2024-03-06T02:14:41;101833.94;;;2.86;71.31
85066;BME280;75401;52.588;13.224;2024-03-06T02:17:07;101843.69;;;2.84;71.47
85066;BME280;75401;52.588;13.224;2024-03-06T02:19:39;101845.53;;;2.83;71.66
85066;BME280;75401;52.588;13.224;2024-03-06T02:22:06;101845.56;;;2.82;71.43
85066;BME280;75401;52.588;13.224;2024-03-06T02:24:31;101843.94;;;2.79;71.23
85066;BME280;75401;52.588;13.224;2024-03-06T02:26:56;101845.72;;;2.79;71.38
85066;BME280;75401;52.588;13.224;2024-03-06T02:29:23;101848.34;;;2.79;71.22
85066;BME280;75401;52.588;13.224;2024-03-06T02:31:48;101849.31;;;2.78;71.14
85066;BME280;75401;52.588;13.224;2024-03-06T02:34:13;101855.50;;;2.77;71.37
85066;BME280;75401;52.588;13.224;2024-03-06T02:36:39;101822.28;;;2.54;71.76
85066;BME280;75401;52.588;13.224;2024-03-06T02:39:05;101851.31;;;2.73;71.02
85066;BME280;75401;52.588;13.224;2024-03-06T02:41:31;101852.22;;;2.72;71.28
85066;BME280;75401;52.588;13.224;2024-03-06T02:43:56;101852.31;;;2.70;71.62
85066;BME280;75401;52.588;13.224;2024-03-06T02:46:21;101853.19;;;2.71;71.35
85066;BME280;75401;52.588;13.224;2024-03-06T02:48:46;101860.25;;;2.70;71.70
85066;BME280;75401;52.588;13.224;2024-03-06T02:51:17;101865.53;;;2.70;71.74
85066;BME280;75401;52.588;13.224;2024-03-06T02:53:43;101865.53;;;2.70;71.43
85066;BME280;75401;52.588;13.224;2024-03-06T02:56:15;101854.09;;;2.70;71.67
85066;BME280;75401;52.588;13.224;2024-03-06T02:58:41;101853.25;;;2.69;71.76
85066;BME280;75401;52.588;13.224;2024-03-06T03:01:06;101860.38;;;2.67;71.70
85066;BME280;75401;52.588;13.224;2024-03-06T03:03:31;101864.81;;;2.67;71.83
85066;BME280;75401;52.588;13.224;2024-03-06T03:05:56;101864.81;;;2.67;71.65
85066;BME280;75401;52.588;13.224;2024-03-06T03:08:22;101864.75;;;2.68;71.84
85066;BME280;75401;52.588;13.224;2024-03-06T03:10:47;101872.69;;;2.68;71.71
85066;BME280;75401;52.588;13.224;2024-03-06T03:13:14;101873.59;;;2.67;71.58
85066;BME280;75401;52.588;13.224;2024-03-06T03:15:39;101875.31;;;2.68;71.58
85066;BME280;75401;52.588;13.224;2024-03-06T03:18:04;101877.09;;;2.68;71.60
85066;BME280;75401;52.588;13.224;2024-03-06T03:20:30;101878.97;;;2.66;71.83
85066;BME280;75401;52.588;13.224;2024-03-06T03:22:55;101881.59;;;2.66;71.66
85066;BME280;75401;52.588;13.224;2024-03-06T03:25:20;101885.25;;;2.63;71.59
85066;BME280;75401;52.588;13.224;2024-03-06T03:27:46;101892.38;;;2.61;71.48
85066;BME280;75401;52.588;13.224;2024-03-06T03:30:12;101894.94;;;2.63;71.52
85066;BME280;75401;52.588;13.224;2024-03-06T03:32:38;101902.16;;;2.59;71.67
85066;BME280;75401;52.588;13.224;2024-03-06T03:35:05;101888.94;;;2.59;71.47
85066;BME280;75401;52.588;13.224;2024-03-06T03:37:30;101902.16;;;2.59;71.77
85066;BME280;75401;52.588;13.224;2024-03-06T03:39:56;101891.81;;;2.54;71.68
85066;BME280;75401;52.588;13.224;2024-03-06T03:42:21;101901.41;;;2.55;71.87
85066;BME280;75401;52.588;13.224;2024-03-06T03:44:46;101897.94;;;2.55;71.64
85066;BME280;75401;52.588;13.224;2024-03-06T03:47:13;101894.50;;;2.53;71.69
85066;BME280;75401;52.588;13.224;2024-03-06T03:49:38;101898.09;;;2.52;71.62
85066;BME280;75401;52.588;13.224;2024-03-06T03:52:04;101903.38;;;2.52;71.51
85066;BME280;75401;52.588;13.224;2024-03-06T03:54:29;101900.00;;;2.48;71.16
85066;BME280;75401;52.588;13.224;2024-03-06T03:56:54;101906.28;;;2.46;71.55
85066;BME280;75401;52.588;13.224;2024-03-06T03:59:20;101892.56;;;2.38;71.84
85066;BME280;75401;52.588;13.224;2024-03-06T04:01:45;101903.66;;;2.46;71.91
85066;BME280;75401;52.588;13.224;2024-03-06T04:04:12;101904.50;;;2.46;71.66
85066;BME280;75401;52.588;13.224;2024-03-06T04:06:37;101901.94;;;2.45;71.71
85066;BME280;75401;52.588;13.224;2024-03-06T04:09:03;101879.25;;;2.22;71.47
85066;BME280;75401;52.588;13.224;2024-03-06T04:11:28;101912.56;;;2.43;71.84
85066;BME280;75401;52.588;13.224;2024-03-06T04:13:53;101918.84;;;2.41;71.95
85066;BME280;75401;52.588;13.224;2024-03-06T04:16:19;101921.47;;;2.41;71.76
85066;BME280;75401;52.588;13.224;2024-03-06T04:18:46;101923.34;;;2.39;72.13
85066;BME280;75401;52.588;13.224;2024-03-06T04:21:13;101916.28;;;2.39;71.78
85066;BME280;75401;52.588;13.224;2024-03-06T04:23:39;101922.47;;;2.38;72.02
85066;BME280;75401;52.588;13.224;2024-03-06T04:26:04;101909.28;;;2.38;71.85
85066;BME280;75401;52.588;13.224;2024-03-06T04:28:29;101917.19;;;2.38;71.62
85066;BME280;75401;52.588;13.224;2024-03-06T04:30:55;101923.44;;;2.37;71.68
85066;BME280;75401;52.588;13.224;2024-03-06T04:33:20;101921.63;;;2.38;71.80
85066;BME280;75401;52.588;13.224;2024-03-06T04:35:46;101919.97;;;2.35;71.62
85066;BME280;75401;52.588;13.224;2024-03-06T04:38:13;101922.69;;;2.34;71.77
85066;BME280;75401;52.588;13.224;2024-03-06T04:40:39;101921.84;;;2.33;71.77
85066;BME280;75401;52.588;13.224;2024-03-06T04:43:04;101920.16;;;2.32;71.86
85066;BME280;75401;52.588;13.224;2024-03-06T04:45:29;101926.34;;;2.31;71.82
85066;BME280;75401;52.588;13.224;2024-03-06T04:47:55;101925.44;;;2.32;71.90
85066;BME280;75401;52.588;13.224;2024-03-06T04:50:20;101929.88;;;2.30;71.66
85066;BME280;75401;52.588;13.224;2024-03-06T04:52:46;101936.13;;;2.29;71.78
85066;BME280;75401;52.588;13.224;2024-03-06T04:55:13;101933.53;;;2.28;71.85
85066;BME280;75401;52.588;13.224;2024-03-06T04:57:39;101935.25;;;2.29;71.76
85066;BME280;75401;52.588;13.224;2024-03-06T05:00:05;101945.81;;;2.29;71.75
85066;BME280;75401;52.588;13.224;2024-03-06T05:02:31;101937.97;;;2.27;71.78
85066;BME280;75401;52.588;13.224;2024-03-06T05:04:56;101941.44;;;2.28;71.96
85066;BME280;75401;52.588;13.224;2024-03-06T05:07:21;101952.09;;;2.26;71.74
85066;BME280;75401;52.588;13.224;2024-03-06T05:09:47;101946.81;;;2.26;72.17
85066;BME280;75401;52.588;13.224;2024-03-06T05:12:13;101953.94;;;2.24;71.79
85066;BME280;75401;52.588;13.224;2024-03-06T05:14:39;101953.09;;;2.24;72.00
85066;BME280;75401;52.588;13.224;2024-03-06T05:17:04;101952.22;;;2.23;72.05
85066;BME280;75401;52.588;13.224;2024-03-06T05:19:29;101952.22;;;2.23;72.01
85066;BME280;75401;52.588;13.224;2024-03-06T05:21:54;101961.91;;;2.23;71.73
85066;BME280;75401;52.588;13.224;2024-03-06T05:24:20;101969.03;;;2.21;71.98
85066;BME280;75401;52.588;13.224;2024-03-06T05:26:45;101965.53;;;2.20;71.83
85066;BME280;75401;52.588;13.224;2024-03-06T05:29:12;101970.91;;;2.19;71.92
85066;BME280;75401;52.588;13.224;2024-03-06T05:31:37;101980.50;;;2.20;71.66
85066;BME280;75401;52.588;13.224;2024-03-06T05:34:02;101979.69;;;2.19;71.58
85066;BME280;75401;52.588;13.224;2024-03-06T05:36:28;101978.88;;;2.17;71.60
85066;BME280;75401;52.588;13.224;2024-03-06T05:38:53;101985.97;;;2.17;71.84
85066;BME280;75401;52.588;13.224;2024-03-06T05:41:18;101980.69;;;2.17;71.87
85066;BME280;75401;52.588;13.224;2024-03-06T05:43:43;101981.59;;;2.16;71.90
85066;BME280;75401;52.588;13.224;2024-03-06T05:46:10;101993.00;;;2.16;71.58
85066;BME280;75401;52.588;13.224;2024-03-06T05:48:35;101984.34;;;2.13;71.70
85066;BME280;75401;52.588;13.224;2024-03-06T05:51:01;101996.56;;;2.15;71.69
85066;BME280;75401;52.588;13.224;2024-03-06T05:53:26;101993.94;;;2.15;71.84
85066;BME280;75401;52.588;13.224;2024-03-06T05:55:51;101993.06;;;2.15;72.28
85066;BME280;75401;52.588;13.224;2024-03-06T05:58:17;102006.22;;;2.16;72.11
85066;BME280;75401;52.588;13.224;2024-03-06T06:00:42;102013.25;;;2.16;71.94
85066;BME280;75401;52.588;13.224;2024-03-06T06:03:09;102012.34;;;2.17;71.82
85066;BME280;75401;52.588;13.224;2024-03-06T06:05:34;102011.50;;;2.16;71.58
85066;BME280;75401;52.588;13.224;2024-03-06T06:07:59;102008.78;;;2.18;71.88
85066;BME280;75401;52.588;13.224;2024-03-06T06:10:25;102014.03;;;2.18;72.22
85066;BME280;75401;52.588;13.224;2024-03-06T06:12:50;102019.41;;;2.16;72.21
85066;BME280;75401;52.588;13.224;2024-03-06T06:15:16;102013.38;;;2.13;72.20
85066;BME280;75401;52.588;13.224;2024-03-06T06:17:41;102020.19;;;2.18;71.91
85066;BME280;75401;52.588;13.224;2024-03-06T06:20:09;102019.16;;;2.22;71.74
85066;BME280;75401;52.588;13.224;2024-03-06T06:22:35;102025.22;;;2.24;71.66
85066;BME280;75401;52.588;13.224;2024-03-06T06:25:00;102026.91;;;2.25;71.50
85066;BME280;75401;52.588;13.224;2024-03-06T06:27:26;102030.38;;;2.27;71.86
85066;BME280;75401;52.588;13.224;2024-03-06T06:29:51;102037.28;;;2.30;71.92
85066;BME280;75401;52.588;13.224;2024-03-06T06:32:16;102031.94;;;2.31;72.23
85066;BME280;75401;52.588;13.224;2024-03-06T06:34:42;102038.84;;;2.34;71.92
85066;BME280;75401;52.588;13.224;2024-03-06T06:37:08;102039.59;;;2.37;72.12
85066;BME280;75401;52.588;13.224;2024-03-06T06:39:34;102040.38;;;2.39;72.34
85066;BME280;75401;52.588;13.224;2024-03-06T06:41:59;102038.53;;;2.41;72.13
85066;BME280;75401;52.588;13.224;2024-03-06T06:44:24;102044.47;;;2.46;72.30
85066;BME280;75401;52.588;13.224;2024-03-06T06:46:50;102041.69;;;2.49;72.21
85066;BME280;75401;52.588;13.224;2024-03-06T06:49:15;102044.97;;;2.54;71.86
85066;BME280;75401;52.588;13.224;2024-03-06T06:51:40;102042.06;;;2.61;72.35
85066;BME280;75401;52.588;13.224;2024-03-06T06:54:07;102046.28;;;2.65;72.73
85066;BME280;75401;52.588;13.224;2024-03-06T06:56:32;102055.72;;;2.70;72.57
85066;BME280;75401;52.588;13.224;2024-03-06T06:58:57;102051.09;;;2.75;72.80
85066;BME280;75401;52.588;13.224;2024-03-06T07:01:23;102059.66;;;2.80;72.56
85066;BME280;75401;52.588;13.224;2024-03-06T07:03:48;102065.59;;;2.85;73.14
85066;BME280;75401;52.588;13.224;2024-03-06T07:06:13;102065.28;;;2.91;72.69
85066;BME280;75401;52.588;13.224;2024-03-06T07:08:39;102067.66;;;2.97;72.93
85066;BME280;75401;52.588;13.224;2024-03-06T07:11:05;102071.91;;;3.01;72.92
85066;BME280;75401;52.588;13.224;2024-03-06T07:13:30;102064.53;;;3.08;73.14
85066;BME280;75401;52.588;13.224;2024-03-06T07:15:56;102073.88;;;3.15;72.80
85066;BME280;75401;52.588;13.224;2024-03-06T07:18:21;102075.31;;;3.22;73.08
85066;BME280;75401;52.588;13.224;2024-03-06T07:20:47;102079.44;;;3.28;73.92
85066;BME280;75401;52.588;13.224;2024-03-06T07:23:13;102086.97;;;3.37;74.42
85066;BME280;75401;52.588;13.224;2024-03-06T07:25:38;102086.50;;;3.46;74.52
85066;BME280;75401;52.588;13.224;2024-03-06T07:28:05;102086.25;;;3.52;75.19
85066;BME280;75401;52.588;13.224;2024-03-06T07:30:30;102092.06;;;3.58;76.54
85066;BME280;75401;52.588;13.224;2024-03-06T07:32:56;102097.44;;;3.75;76.34
85066;BME280;75401;52.588;13.224;2024-03-06T07:35:21;102098.31;;;3.93;76.61
85066;BME280;75401;52.588;13.224;2024-03-06T07:37:47;102104.72;;;4.06;76.90
85066;BME280;75401;52.588;13.224;2024-03-06T07:40:12;102097.03;;;4.19;75.16
85066;BME280;75401;52.588;13.224;2024-03-06T07:42:37;102101.69;;;4.31;76.73
85066;BME280;75401;52.588;13.224;2024-03-06T07:45:05;102099.31;;;4.42;75.87
85066;BME280;75401;52.588;13.224;2024-03-06T07:47:30;102106.56;;;4.56;75.93
85066;BME280;75401;52.588;13.224;2024-03-06T07:49:56;102105.31;;;4.63;75.36
85066;BME280;75401;52.588;13.224;2024-03-06T07:52:21;102096.28;;;4.67;75.28
85066;BME280;75401;52.588;13.224;2024-03-06T07:54:47;102111.13;;;4.86;75.65
85066;BME280;75401;52.588;13.224;2024-03-06T07:57:12;102104.22;;;4.99;74.57
85066;BME280;75401;52.588;13.224;2024-03-06T07:59:37;102124.94;;;5.08;74.99
85066;BME280;75401;52.588;13.224;2024-03-06T08:02:04;102120.78;;;5.20;75.17
85066;BME280;75401;52.588;13.224;2024-03-06T08:04:30;102122.09;;;5.29;74.62
85066;BME280;75401;52.588;13.224;2024-03-06T08:06:55;102115.56;;;5.34;74.16
85066;BME280;75401;52.588;13.224;2024-03-06T08:09:20;102112.16;;;5.48;73.72
85066;BME280;75401;52.588;13.224;2024-03-06T08:11:46;102125.69;;;5.59;73.65
85066;BME280;75401;52.588;13.224;2024-03-06T08:14:11;102122.34;;;5.71;73.36
85066;BME280;75401;52.588;13.224;2024-03-06T08:16:36;102123.97;;;5.73;73.15
85066;BME280;75401;52.588;13.224;2024-03-06T08:19:03;102124.31;;;5.83;72.83
85066;BME280;75401;52.588;13.224;2024-03-06T08:21:28;102126.97;;;5.99;72.20
85066;BME280;75401;52.588;13.224;2024-03-06T08:23:54;102127.22;;;6.10;71.89
85066;BME280;75401;52.588;13.224;2024-03-06T08:26:19;102122.84;;;6.09;71.63
85066;BME280;75401;52.588;13.224;2024-03-06T08:28:45;102134.31;;;6.25;71.42
85066;BME280;75401;52.588;13.224;2024-03-06T08:31:10;102135.38;;;6.37;70.95
85066;BME280;75401;52.588;13.224;2024-03-06T08:33:35;102135.59;;;6.48;70.79
85066;BME280;75401;52.588;13.224;2024-03-06T08:36:02;102143.53;;;6.63;70.41
85066;BME280;75401;52.588;13.224;2024-03-06T08:38:28;102136.59;;;6.61;70.28
85066;BME280;75401;52.588;13.224;2024-03-06T08:40:53;102140.22;;;6.74;70.20
85066;BME280;75401;52.588;13.224;2024-03-06T08:43:18;102100.59;;;6.55;70.07
85066;BME280;75401;52.588;13.224;2024-03-06T08:45:44;102143.56;;;6.91;69.87
85066;BME280;75401;52.588;13.224;2024-03-06T08:48:09;102144.03;;;6.98;69.51
85066;BME280;75401;52.588;13.224;2024-03-06T08:50:34;102150.13;;;7.00;69.67
85066;BME280;75401;52.588;13.224;2024-03-06T08:53:01;102150.44;;;7.10;69.67
85066;BME280;75401;52.588;13.224;2024-03-06T08:55:26;102151.47;;;7.21;69.08
85066;BME280;75401;52.588;13.224;2024-03-06T08:57:52;102145.38;;;7.19;69.05
85066;BME280;75401;52.588;13.224;2024-03-06T09:00:17;102148.44;;;7.27;69.16
85066;BME280;75401;52.588;13.224;2024-03-06T09:02:43;102149.84;;;7.33;68.94
85066;BME280;75401;52.588;13.224;2024-03-06T09:05:09;102154.59;;;7.42;69.04
85066;BME280;75401;52.588;13.224;2024-03-06T09:07:35;102149.75;;;7.48;69.04
85066;BME280;75401;52.588;13.224;2024-03-06T09:10:02;102153.63;;;7.71;68.65
85066;BME280;75401;52.588;13.224;2024-03-06T09:12:27;102155.88;;;7.77;67.77
85066;BME280;75401;52.588;13.224;2024-03-06T09:14:52;102153.13;;;7.79;66.03
85066;BME280;75401;52.588;13.224;2024-03-06T09:17:18;102157.47;;;7.80;66.29
85066;BME280;75401;52.588;13.224;2024-03-06T09:19:43;102158.09;;;7.97;67.18
85066;BME280;75401;52.588;13.224;2024-03-06T09:22:08;102159.47;;;8.17;67.30
85066;BME280;75401;52.588;13.224;2024-03-06T09:24:34;102160.72;;;8.11;66.60
85066;BME280;75401;52.588;13.224;2024-03-06T09:27:01;102117.56;;;7.92;66.67
85066;BME280;75401;52.588;13.224;2024-03-06T09:29:26;102161.91;;;8.34;66.24
85066;BME280;75401;52.588;13.224;2024-03-06T09:31:52;102161.69;;;8.37;65.20
85066;BME280;75401;52.588;13.224;2024-03-06T09:34:17;102157.97;;;8.40;65.45
85066;BME280;75401;52.588;13.224;2024-03-06T09:36:46;102166.19;;;8.49;65.47
85066;BME280;75401;52.588;13.224;2024-03-06T09:39:12;102164.31;;;8.64;65.65
85066;BME280;75401;52.588;13.224;2024-03-06T09:41:37;102161.09;;;8.71;63.71
85066;BME280;75401;52.588;13.224;2024-03-06T09:44:04;102171.78;;;8.84;63.56
85066;BME280;75401;52.588;13.224;2024-03-06T09:46:29;102166.50;;;8.97;62.76
85066;BME280;75401;52.588;13.224;2024-03-06T09:48:55;102163.31;;;9.04;63.87
85066;BME280;75401;52.588;13.224;2024-03-06T09:51:21;102172.03;;;9.19;61.20
85066;BME280;75401;52.588;13.224;2024-03-06T09:53:46;102164.97;;;9.30;60.95
85066;BME280;75401;52.588;13.224;2024-03-06T09:56:12;102159.09;;;9.38;59.91
85066;BME280;75401;52.588;13.224;2024-03-06T09:58:37;102164.09;;;9.55;59.90
85066;BME280;75401;52.588;13.224;2024-03-06T10:01:05;102168.56;;;9.67;59.68
85066;BME280;75401;52.588;13.224;2024-03-06T10:03:30;102168.88;;;9.75;58.35
85066;BME280;75401;52.588;13.224;2024-03-06T10:05:56;102174.69;;;9.93;60.19
85066;BME280;75401;52.588;13.224;2024-03-06T10:08:22;102176.78;;;10.00;58.04
85066;BME280;75401;52.588;13.224;2024-03-06T10:10:47;102170.72;;;10.22;58.68
85066;BME280;75401;52.588;13.224;2024-03-06T10:13:15;102176.16;;;10.33;56.78
85066;BME280;75401;52.588;13.224;2024-03-06T10:15:41;102167.16;;;10.34;56.68
85066;BME280;75401;52.588;13.224;2024-03-06T10:18:12;102177.72;;;10.59;56.26
85066;BME280;75401;52.588;13.224;2024-03-06T10:20:37;102179.97;;;10.42;57.57
85066;BME280;75401;52.588;13.224;2024-03-06T10:23:03;102166.03;;;10.60;60.03
85066;BME280;75401;52.588;13.224;2024-03-06T10:25:29;102154.44;;;10.49;58.79
85066;BME280;75401;52.588;13.224;2024-03-06T10:28:05;102178.09;;;10.66;57.97
85066;BME280;75401;52.588;13.224;2024-03-06T10:30:30;102169.56;;;10.96;58.26
85066;BME280;75401;52.588;13.224;2024-03-06T10:32:56;102168.22;;;11.12;58.43
85066;BME280;75401;52.588;13.224;2024-03-06T10:35:22;102174.22;;;11.38;58.36
85066;BME280;75401;52.588;13.224;2024-03-06T10:37:48;102168.88;;;11.38;55.30
85066;BME280;75401;52.588;13.224;2024-03-06T10:40:15;102168.00;;;11.37;54.83
85066;BME280;75401;52.588;13.224;2024-03-06T10:42:41;102175.91;;;11.50;54.26
85066;BME280;75401;52.588;13.224;2024-03-06T10:45:07;102176.66;;;11.52;55.14
85066;BME280;75401;52.588;13.224;2024-03-06T10:47:36;102176.91;;;11.49;52.87
85066;BME280;75401;52.588;13.224;2024-03-06T10:50:04;102177.97;;;11.58;53.35
85066;BME280;75401;52.588;13.224;2024-03-06T10:52:32;102177.38;;;11.43;53.43
85066;BME280;75401;52.588;13.224;2024-03-06T10:54:59;102168.88;;;11.38;54.59
85066;BME280;75401;52.588;13.224;2024-03-06T10:57:25;102173.09;;;11.29;55.14
85066;BME280;75401;52.588;13.224;2024-03-06T10:59:52;102173.25;;;11.28;54.63
85066;BME280;75401;52.588;13.224;2024-03-06T11:02:18;102175.06;;;11.16;55.37
85066;BME280;75401;52.588;13.224;2024-03-06T11:04:44;102151.41;;;10.99;56.26
85066;BME280;75401;52.588;13.224;2024-03-06T11:07:10;102182.97;;;11.18;56.20
85066;BME280;75401;52.588;13.224;2024-03-06T11:09:37;102187.97;;;11.11;56.15
85066;BME280;75401;52.588;13.224;2024-03-06T11:12:03;102180.41;;;11.05;56.66
85066;BME280;75401;52.588;13.224;2024-03-06T11:14:30;102180.28;;;10.96;57.11
85066;BME280;75401;52.588;13.224;2024-03-06T11:16:58;102181.00;;;10.98;58.34
85066;BME280;75401;52.588;13.224;2024-03-06T11:19:23;102180.03;;;11.10;57.29
85066;BME280;75401;52.588;13.224;2024-03-06T11:21:48;102181.09;;;10.85;55.97
85066;BME280;75401;52.588;13.224;2024-03-06T11:24:16;102176.09;;;10.81;55.94
85066;BME280;75401;52.588;13.224;2024-03-06T11:26:57;102182.59;;;10.65;54.83
85066;BME280;75401;52.588;13.224;2024-03-06T11:29:22;102184.50;;;10.87;56.19
85066;BME280;75401;52.588;13.224;2024-03-06T11:32:02;102187.97;;;11.11;55.15
85066;BME280;75401;52.588;13.224;2024-03-06T11:34:28;102179.03;;;11.00;54.98
85066;BME280;75401;52.588;13.224;2024-03-06T11:36:53;102183.94;;;11.06;55.99
85066;BME280;75401;52.588;13.224;2024-03-06T11:39:21;102181.50;;;11.03;54.92
85066;BME280;75401;52.588;13.224;2024-03-06T11:41:47;102170.06;;;11.01;55.28
85066;BME280;75401;52.588;13.224;2024-03-06T11:44:15;102182.34;;;11.03;53.64
85066;BME280;75401;52.588;13.224;2024-03-06T11:46:42;102177.19;;;10.89;54.77
85066;BME280;75401;52.588;13.224;2024-03-06T11:49:14;102171.34;;;10.84;54.86
85066;BME280;75401;52.588;13.224;2024-03-06T11:51:40;102171.25;;;10.86;55.54
85066;BME280;75401;52.588;13.224;2024-03-06T11:54:06;102164.44;;;10.93;54.14
85066;BME280;75401;52.588;13.224;2024-03-06T11:56:31;102166.06;;;11.06;55.31
85066;BME280;75401;52.588;13.224;2024-03-06T11:58:56;102178.34;;;11.09;53.45
85066;BME280;75401;52.588;13.224;2024-03-06T12:01:23;102167.75;;;11.18;53.00
85066;BME280;75401;52.588;13.224;2024-03-06T12:03:48;102167.88;;;11.17;52.11
85066;BME280;75401;52.588;13.224;2024-03-06T12:06:14;102165.56;;;11.23;53.64
85066;BME280;75401;52.588;13.224;2024-03-06T12:08:40;102171.91;;;11.22;54.29
85066;BME280;75401;52.588;13.224;2024-03-06T12:11:05;102172.47;;;11.04;54.14
85066;BME280;75401;52.588;13.224;2024-03-06T12:13:30;102167.97;;;10.93;54.08
85066;BME280;75401;52.588;13.224;2024-03-06T12:15:56;102175.97;;;10.82;55.03
85066;BME280;75401;52.588;13.224;2024-03-06T12:18:24;102181.63;;;10.66;54.76
85066;BME280;75401;52.588;13.224;2024-03-06T12:20:50;102174.75;;;10.75;55.18
85066;BME280;75401;52.588;13.224;2024-03-06T12:23:19;102175.59;;;10.76;54.73
85066;BME280;75401;52.588;13.224;2024-03-06T12:25:45;102183.28;;;10.80;54.81
85066;BME280;75401;52.588;13.224;2024-03-06T12:28:10;102173.41;;;10.81;54.54
85066;BME280;75401;52.588;13.224;2024-03-06T12:30:40;102172.56;;;10.91;54.20
85066;BME280;75401;52.588;13.224;2024-03-06T12:33:06;102167.13;;;11.15;54.53
85066;BME280;75401;52.588;13.224;2024-03-06T12:35:33;102163.84;;;11.22;54.60
85066;BME280;75401;52.588;13.224;2024-03-06T12:37:58;102167.28;;;11.13;53.76
85066;BME280;75401;52.588;13.224;2024-03-06T12:40:23;102160.97;;;11.36;52.89